sensor_id;sensor_type;location;lat;lon;timestamp;P1;durP1;ratioP1;P2;durP2;ratioP2
68792;SDS011;55778;54.346;10.210;2023-04-26T00:00:36;7.53;;;1.40;;
68792;SDS011;55778;54.346;10.210;2023-04-26T00:03:06;5.90;;;1.20;;
68792;SDS011;55778;54.346;10.210;2023-04-26T00:05:31;8.70;;;1.50;;
68792;SDS011;55778;54.346;10.210;2023-04-26T00:07:57;6.32;;;1.40;;
68792;SDS011;55778;54.346;10.210;2023-04-26T00:10:22;5.70;;;1.50;;
68792;SDS011;55778;54.346;10.210;2023-04-26T00:12:48;7.13;;;1.73;;
68792;SDS011;55778;54.346;10.210;2023-04-26T00:15:13;7.32;;;1.52;;
68792;SDS011;55778;54.346;10.210;2023-04-26T00:17:38;8.35;;;1.30;;
68792;SDS011;55778;54.346;10.210;2023-04-26T00:20:04;6.53;;;1.50;;
68792;SDS011;55778;54.346;10.210;2023-04-26T00:22:33;5.80;;;1.33;;
68792;SDS011;55778;54.346;10.210;2023-04-26T00:24:58;8.30;;;1.60;;
68792;SDS011;55778;54.346;10.210;2023-04-26T00:27:23;5.32;;;1.40;;
68792;SDS011;55778;54.346;10.210;2023-04-26T00:29:49;5.35;;;1.40;;
68792;SDS011;55778;54.346;10.210;2023-04-26T00:32:14;7.28;;;1.17;;
68792;SDS011;55778;54.346;10.210;2023-04-26T00:34:40;6.32;;;1.40;;
68792;SDS011;55778;54.346;10.210;2023-04-26T00:37:05;6.95;;;1.98;;
68792;SDS011;55778;54.346;10.210;2023-04-26T00:39:31;6.13;;;1.50;;
68792;SDS011;55778;54.346;10.210;2023-04-26T00:41:56;5.13;;;1.30;;
68792;SDS011;55778;54.346;10.210;2023-04-26T00:44:22;9.25;;;1.40;;
68792;SDS011;55778;54.346;10.210;2023-04-26T00:46:48;6.35;;;1.60;;
68792;SDS011;55778;54.346;10.210;2023-04-26T00:49:16;10.18;;;1.42;;
68792;SDS011;55778;54.346;10.210;2023-04-26T00:51:43;7.95;;;1.42;;
68792;SDS011;55778;54.346;10.210;2023-04-26T00:54:09;6.82;;;1.40;;
68792;SDS011;55778;54.346;10.210;2023-04-26T00:56:35;7.47;;;1.85;;
68792;SDS011;55778;54.346;10.210;2023-04-26T00:59:02;4.65;;;1.20;;
68792;SDS011;55778;54.346;10.210;2023-04-26T01:01:28;6.25;;;1.50;;
68792;SDS011;55778;54.346;10.210;2023-04-26T01:03:54;6.60;;;1.30;;
68792;SDS011;55778;54.346;10.210;2023-04-26T01:06:19;6.13;;;1.45;;
68792;SDS011;55778;54.346;10.210;2023-04-26T01:08:45;7.22;;;1.27;;
68792;SDS011;55778;54.346;10.210;2023-04-26T01:11:10;7.97;;;1.60;;
68792;SDS011;55778;54.346;10.210;2023-04-26T01:13:36;9.80;;;1.55;;
68792;SDS011;55778;54.346;10.210;2023-04-26T01:16:02;6.03;;;1.38;;
68792;SDS011;55778;54.346;10.210;2023-04-26T01:18:28;6.20;;;1.35;;
68792;SDS011;55778;54.346;10.210;2023-04-26T01:20:54;8.02;;;1.50;;
68792;SDS011;55778;54.346;10.210;2023-04-26T01:23:20;4.97;;;1.33;;
68792;SDS011;55778;54.346;10.210;2023-04-26T01:25:46;8.98;;;1.65;;
68792;SDS011;55778;54.346;10.210;2023-04-26T01:28:15;6.20;;;1.80;;
68792;SDS011;55778;54.346;10.210;2023-04-26T01:30:40;6.63;;;1.20;;
68792;SDS011;55778;54.346;10.210;2023-04-26T01:33:06;6.18;;;1.60;;
68792;SDS011;55778;54.346;10.210;2023-04-26T01:35:31;3.35;;;1.25;;
68792;SDS011;55778;54.346;10.210;2023-04-26T01:37:57;8.80;;;1.50;;
68792;SDS011;55778;54.346;10.210;2023-04-26T01:40:23;11.07;;;1.77;;
68792;SDS011;55778;54.346;10.210;2023-04-26T01:42:48;4.93;;;1.35;;
68792;SDS011;55778;54.346;10.210;2023-04-26T01:45:13;6.53;;;1.30;;
68792;SDS011;55778;54.346;10.210;2023-04-26T01:47:39;13.90;;;1.52;;
68792;SDS011;55778;54.346;10.210;2023-04-26T01:50:05;9.90;;;1.63;;
68792;SDS011;55778;54.346;10.210;2023-04-26T01:52:31;7.07;;;1.30;;
68792;SDS011;55778;54.346;10.210;2023-04-26T01:54:56;6.35;;;1.48;;
68792;SDS011;55778;54.346;10.210;2023-04-26T01:57:21;7.20;;;1.38;;
68792;SDS011;55778;54.346;10.210;2023-04-26T01:59:47;7.78;;;1.95;;
68792;SDS011;55778;54.346;10.210;2023-04-26T02:02:12;5.22;;;1.25;;
68792;SDS011;55778;54.346;10.210;2023-04-26T02:04:37;5.30;;;1.48;;
68792;SDS011;55778;54.346;10.210;2023-04-26T02:07:03;5.85;;;2.03;;
68792;SDS011;55778;54.346;10.210;2023-04-26T02:09:28;7.10;;;1.45;;
68792;SDS011;55778;54.346;10.210;2023-04-26T02:11:54;9.07;;;1.20;;
68792;SDS011;55778;54.346;10.210;2023-04-26T02:14:19;11.85;;;1.92;;
68792;SDS011;55778;54.346;10.210;2023-04-26T02:16:44;8.13;;;1.60;;
68792;SDS011;55778;54.346;10.210;2023-04-26T02:19:10;7.63;;;1.40;;
68792;SDS011;55778;54.346;10.210;2023-04-26T02:21:54;4.43;;;1.40;;
68792;SDS011;55778;54.346;10.210;2023-04-26T02:24:21;3.75;;;1.23;;
68792;SDS011;55778;54.346;10.210;2023-04-26T02:26:47;11.18;;;1.55;;
68792;SDS011;55778;54.346;10.210;2023-04-26T02:29:13;4.97;;;1.40;;
68792;SDS011;55778;54.346;10.210;2023-04-26T02:31:39;6.93;;;1.42;;
68792;SDS011;55778;54.346;10.210;2023-04-26T02:34:04;5.40;;;1.33;;
68792;SDS011;55778;54.346;10.210;2023-04-26T02:36:30;12.48;;;2.28;;
68792;SDS011;55778;54.346;10.210;2023-04-26T02:38:57;4.78;;;1.10;;
68792;SDS011;55778;54.346;10.210;2023-04-26T02:41:22;7.40;;;1.50;;
68792;SDS011;55778;54.346;10.210;2023-04-26T02:43:48;3.63;;;1.40;;
68792;SDS011;55778;54.346;10.210;2023-04-26T02:46:14;11.23;;;1.90;;
68792;SDS011;55778;54.346;10.210;2023-04-26T02:48:39;5.88;;;1.50;;
68792;SDS011;55778;54.346;10.210;2023-04-26T02:51:05;5.00;;;1.30;;
68792;SDS011;55778;54.346;10.210;2023-04-26T02:53:30;8.52;;;2.22;;
68792;SDS011;55778;54.346;10.210;2023-04-26T02:55:55;6.82;;;1.50;;
68792;SDS011;55778;54.346;10.210;2023-04-26T02:58:21;7.88;;;1.67;;
68792;SDS011;55778;54.346;10.210;2023-04-26T03:00:46;9.75;;;1.52;;
68792;SDS011;55778;54.346;10.210;2023-04-26T03:03:12;9.75;;;1.88;;
68792;SDS011;55778;54.346;10.210;2023-04-26T03:05:38;5.22;;;2.05;;
68792;SDS011;55778;54.346;10.210;2023-04-26T03:08:03;5.90;;;1.27;;
68792;SDS011;55778;54.346;10.210;2023-04-26T03:10:30;6.00;;;1.50;;
68792;SDS011;55778;54.346;10.210;2023-04-26T03:12:55;7.05;;;1.60;;
68792;SDS011;55778;54.346;10.210;2023-04-26T03:15:20;3.38;;;1.30;;
68792;SDS011;55778;54.346;10.210;2023-04-26T03:17:46;8.50;;;2.15;;
68792;SDS011;55778;54.346;10.210;2023-04-26T03:20:11;12.52;;;2.05;;
68792;SDS011;55778;54.346;10.210;2023-04-26T03:22:37;7.40;;;1.50;;
68792;SDS011;55778;54.346;10.210;2023-04-26T03:25:03;5.53;;;1.30;;
68792;SDS011;55778;54.346;10.210;2023-04-26T03:27:29;6.47;;;1.48;;
68792;SDS011;55778;54.346;10.210;2023-04-26T03:29:54;6.22;;;1.60;;
68792;SDS011;55778;54.346;10.210;2023-04-26T03:32:20;4.95;;;1.45;;
68792;SDS011;55778;54.346;10.210;2023-04-26T03:34:45;6.65;;;1.65;;
68792;SDS011;55778;54.346;10.210;2023-04-26T03:37:12;6.35;;;1.38;;
68792;SDS011;55778;54.346;10.210;2023-04-26T03:39:38;6.30;;;1.80;;
68792;SDS011;55778;54.346;10.210;2023-04-26T03:42:03;7.13;;;1.50;;
68792;SDS011;55778;54.346;10.210;2023-04-26T03:44:29;4.30;;;1.30;;
68792;SDS011;55778;54.346;10.210;2023-04-26T03:46:54;7.30;;;1.83;;
68792;SDS011;55778;54.346;10.210;2023-04-26T03:49:20;7.53;;;1.65;;
68792;SDS011;55778;54.346;10.210;2023-04-26T03:51:46;10.38;;;1.58;;
68792;SDS011;55778;54.346;10.210;2023-04-26T03:54:11;5.18;;;1.45;;
68792;SDS011;55778;54.346;10.210;2023-04-26T03:56:36;5.40;;;1.40;;
68792;SDS011;55778;54.346;10.210;2023-04-26T03:59:03;5.28;;;1.60;;
68792;SDS011;55778;54.346;10.210;2023-04-26T04:01:28;10.00;;;2.42;;
68792;SDS011;55778;54.346;10.210;2023-04-26T04:03:53;10.18;;;1.60;;
68792;SDS011;55778;54.346;10.210;2023-04-26T04:06:19;6.97;;;2.00;;
68792;SDS011;55778;54.346;10.210;2023-04-26T04:08:44;8.00;;;1.70;;
68792;SDS011;55778;54.346;10.210;2023-04-26T04:11:10;7.75;;;1.70;;
68792;SDS011;55778;54.346;10.210;2023-04-26T04:13:35;4.97;;;1.50;;
68792;SDS011;55778;54.346;10.210;2023-04-26T04:16:01;8.23;;;1.70;;
68792;SDS011;55778;54.346;10.210;2023-04-26T04:18:26;8.60;;;1.50;;
68792;SDS011;55778;54.346;10.210;2023-04-26T04:20:51;7.75;;;1.83;;
68792;SDS011;55778;54.346;10.210;2023-04-26T04:23:17;8.75;;;1.77;;
68792;SDS011;55778;54.346;10.210;2023-04-26T04:25:42;6.57;;;1.50;;
68792;SDS011;55778;54.346;10.210;2023-04-26T04:28:09;5.90;;;1.80;;
68792;SDS011;55778;54.346;10.210;2023-04-26T04:30:36;7.85;;;1.80;;
68792;SDS011;55778;54.346;10.210;2023-04-26T04:33:01;6.18;;;1.75;;
68792;SDS011;55778;54.346;10.210;2023-04-26T04:35:29;6.63;;;1.88;;
68792;SDS011;55778;54.346;10.210;2023-04-26T04:37:57;7.70;;;2.22;;
68792;SDS011;55778;54.346;10.210;2023-04-26T04:40:23;5.55;;;2.17;;
68792;SDS011;55778;54.346;10.210;2023-04-26T04:42:49;4.72;;;1.60;;
68792;SDS011;55778;54.346;10.210;2023-04-26T04:45:14;8.40;;;1.55;;
68792;SDS011;55778;54.346;10.210;2023-04-26T04:47:41;9.23;;;1.73;;
68792;SDS011;55778;54.346;10.210;2023-04-26T04:50:07;6.05;;;1.55;;
68792;SDS011;55778;54.346;10.210;2023-04-26T04:52:33;7.45;;;1.95;;
68792;SDS011;55778;54.346;10.210;2023-04-26T04:54:58;6.88;;;1.83;;
68792;SDS011;55778;54.346;10.210;2023-04-26T04:57:25;8.30;;;1.75;;
68792;SDS011;55778;54.346;10.210;2023-04-26T04:59:51;6.90;;;1.77;;
68792;SDS011;55778;54.346;10.210;2023-04-26T05:02:17;9.55;;;1.98;;
68792;SDS011;55778;54.346;10.210;2023-04-26T05:04:42;8.48;;;2.15;;
68792;SDS011;55778;54.346;10.210;2023-04-26T05:07:08;6.88;;;1.70;;
68792;SDS011;55778;54.346;10.210;2023-04-26T05:09:33;7.07;;;1.75;;
68792;SDS011;55778;54.346;10.210;2023-04-26T05:11:59;9.45;;;2.03;;
68792;SDS011;55778;54.346;10.210;2023-04-26T05:14:25;5.88;;;1.88;;
68792;SDS011;55778;54.346;10.210;2023-04-26T05:16:50;6.45;;;1.80;;
68792;SDS011;55778;54.346;10.210;2023-04-26T05:19:16;5.57;;;2.08;;
68792;SDS011;55778;54.346;10.210;2023-04-26T05:21:41;5.97;;;1.65;;
68792;SDS011;55778;54.346;10.210;2023-04-26T05:24:07;6.05;;;1.90;;
68792;SDS011;55778;54.346;10.210;2023-04-26T05:26:33;6.95;;;1.80;;
68792;SDS011;55778;54.346;10.210;2023-04-26T05:28:59;6.88;;;2.08;;
68792;SDS011;55778;54.346;10.210;2023-04-26T05:31:24;9.75;;;1.98;;
68792;SDS011;55778;54.346;10.210;2023-04-26T05:33:50;4.63;;;1.70;;
68792;SDS011;55778;54.346;10.210;2023-04-26T05:36:16;3.65;;;1.50;;
68792;SDS011;55778;54.346;10.210;2023-04-26T05:38:42;6.22;;;2.08;;
68792;SDS011;55778;54.346;10.210;2023-04-26T05:41:07;6.95;;;1.85;;
68792;SDS011;55778;54.346;10.210;2023-04-26T05:43:33;3.72;;;1.83;;
68792;SDS011;55778;54.346;10.210;2023-04-26T05:45:58;4.13;;;1.88;;
68792;SDS011;55778;54.346;10.210;2023-04-26T05:48:24;7.40;;;1.92;;
68792;SDS011;55778;54.346;10.210;2023-04-26T05:50:50;5.95;;;1.63;;
68792;SDS011;55778;54.346;10.210;2023-04-26T05:53:16;8.27;;;2.10;;
68792;SDS011;55778;54.346;10.210;2023-04-26T05:55:43;3.88;;;1.70;;
68792;SDS011;55778;54.346;10.210;2023-04-26T05:58:08;7.70;;;1.52;;
68792;SDS011;55778;54.346;10.210;2023-04-26T06:00:35;5.57;;;1.85;;
68792;SDS011;55778;54.346;10.210;2023-04-26T06:03:01;7.10;;;1.60;;
68792;SDS011;55778;54.346;10.210;2023-04-26T06:05:26;5.40;;;1.60;;
68792;SDS011;55778;54.346;10.210;2023-04-26T06:07:52;4.88;;;1.60;;
68792;SDS011;55778;54.346;10.210;2023-04-26T06:10:17;6.40;;;1.70;;
68792;SDS011;55778;54.346;10.210;2023-04-26T06:12:43;9.45;;;1.83;;
68792;SDS011;55778;54.346;10.210;2023-04-26T06:15:09;7.35;;;1.90;;
68792;SDS011;55778;54.346;10.210;2023-04-26T06:17:34;7.25;;;1.67;;
68792;SDS011;55778;54.346;10.210;2023-04-26T06:20:00;7.10;;;2.10;;
68792;SDS011;55778;54.346;10.210;2023-04-26T06:22:26;6.68;;;1.77;;
68792;SDS011;55778;54.346;10.210;2023-04-26T06:24:51;6.30;;;1.65;;
68792;SDS011;55778;54.346;10.210;2023-04-26T06:27:16;7.28;;;2.50;;
68792;SDS011;55778;54.346;10.210;2023-04-26T06:29:42;8.55;;;2.15;;
68792;SDS011;55778;54.346;10.210;2023-04-26T06:32:08;4.78;;;1.95;;
68792;SDS011;55778;54.346;10.210;2023-04-26T06:34:33;4.30;;;1.95;;
68792;SDS011;55778;54.346;10.210;2023-04-26T06:36:59;7.65;;;1.98;;
68792;SDS011;55778;54.346;10.210;2023-04-26T06:39:25;5.68;;;2.40;;
68792;SDS011;55778;54.346;10.210;2023-04-26T06:41:50;10.55;;;1.83;;
68792;SDS011;55778;54.346;10.210;2023-04-26T06:44:15;5.68;;;1.73;;
68792;SDS011;55778;54.346;10.210;2023-04-26T06:46:41;8.75;;;2.22;;
68792;SDS011;55778;54.346;10.210;2023-04-26T06:49:06;8.98;;;2.25;;
68792;SDS011;55778;54.346;10.210;2023-04-26T06:51:32;6.63;;;1.90;;
68792;SDS011;55778;54.346;10.210;2023-04-26T06:53:57;6.32;;;1.58;;
68792;SDS011;55778;54.346;10.210;2023-04-26T06:56:24;8.23;;;2.10;;
68792;SDS011;55778;54.346;10.210;2023-04-26T06:59:00;5.18;;;2.03;;
68792;SDS011;55778;54.346;10.210;2023-04-26T07:01:27;4.03;;;1.50;;
68792;SDS011;55778;54.346;10.210;2023-04-26T07:03:56;5.65;;;1.90;;
68792;SDS011;55778;54.346;10.210;2023-04-26T07:06:22;6.97;;;1.80;;
68792;SDS011;55778;54.346;10.210;2023-04-26T07:08:48;10.38;;;1.55;;
68792;SDS011;55778;54.346;10.210;2023-04-26T07:11:14;6.38;;;1.70;;
68792;SDS011;55778;54.346;10.210;2023-04-26T07:13:39;6.72;;;1.95;;
68792;SDS011;55778;54.346;10.210;2023-04-26T07:16:05;4.65;;;1.90;;
68792;SDS011;55778;54.346;10.210;2023-04-26T07:18:30;5.15;;;1.58;;
68792;SDS011;55778;54.346;10.210;2023-04-26T07:20:55;7.18;;;1.70;;
68792;SDS011;55778;54.346;10.210;2023-04-26T07:23:21;4.90;;;1.60;;
68792;SDS011;55778;54.346;10.210;2023-04-26T07:25:46;4.53;;;1.70;;
68792;SDS011;55778;54.346;10.210;2023-04-26T07:28:12;3.88;;;1.38;;
68792;SDS011;55778;54.346;10.210;2023-04-26T07:30:37;6.40;;;1.70;;
68792;SDS011;55778;54.346;10.210;2023-04-26T07:33:03;6.60;;;1.98;;
68792;SDS011;55778;54.346;10.210;2023-04-26T07:35:28;4.40;;;1.70;;
68792;SDS011;55778;54.346;10.210;2023-04-26T07:37:54;3.05;;;1.40;;
68792;SDS011;55778;54.346;10.210;2023-04-26T07:40:19;4.60;;;1.50;;
68792;SDS011;55778;54.346;10.210;2023-04-26T07:42:46;6.72;;;1.70;;
68792;SDS011;55778;54.346;10.210;2023-04-26T07:45:12;6.20;;;2.00;;
68792;SDS011;55778;54.346;10.210;2023-04-26T07:47:37;4.45;;;1.33;;
68792;SDS011;55778;54.346;10.210;2023-04-26T07:50:03;3.92;;;1.40;;
68792;SDS011;55778;54.346;10.210;2023-04-26T07:52:28;6.10;;;1.52;;
68792;SDS011;55778;54.346;10.210;2023-04-26T07:54:54;4.25;;;1.38;;
68792;SDS011;55778;54.346;10.210;2023-04-26T07:57:19;4.22;;;1.48;;
68792;SDS011;55778;54.346;10.210;2023-04-26T07:59:45;5.70;;;1.50;;
68792;SDS011;55778;54.346;10.210;2023-04-26T08:02:10;5.30;;;1.70;;
68792;SDS011;55778;54.346;10.210;2023-04-26T08:04:35;6.85;;;1.50;;
68792;SDS011;55778;54.346;10.210;2023-04-26T08:07:01;5.53;;;1.50;;
68792;SDS011;55778;54.346;10.210;2023-04-26T08:09:29;10.45;;;1.50;;
68792;SDS011;55778;54.346;10.210;2023-04-26T08:11:55;5.35;;;1.40;;
68792;SDS011;55778;54.346;10.210;2023-04-26T08:14:21;5.90;;;1.42;;
68792;SDS011;55778;54.346;10.210;2023-04-26T08:16:46;3.72;;;1.20;;
68792;SDS011;55778;54.346;10.210;2023-04-26T08:19:15;5.07;;;1.70;;
68792;SDS011;55778;54.346;10.210;2023-04-26T08:21:41;3.28;;;1.08;;
68792;SDS011;55778;54.346;10.210;2023-04-26T08:24:06;5.20;;;1.15;;
68792;SDS011;55778;54.346;10.210;2023-04-26T08:26:32;5.63;;;2.25;;
68792;SDS011;55778;54.346;10.210;2023-04-26T08:28:57;2.55;;;1.40;;
68792;SDS011;55778;54.346;10.210;2023-04-26T08:31:22;5.95;;;1.58;;
68792;SDS011;55778;54.346;10.210;2023-04-26T08:33:48;2.35;;;1.00;;
68792;SDS011;55778;54.346;10.210;2023-04-26T08:36:13;3.95;;;1.05;;
68792;SDS011;55778;54.346;10.210;2023-04-26T08:38:39;8.77;;;1.45;;
68792;SDS011;55778;54.346;10.210;2023-04-26T08:41:04;3.80;;;1.40;;
68792;SDS011;55778;54.346;10.210;2023-04-26T08:43:33;3.38;;;1.05;;
68792;SDS011;55778;54.346;10.210;2023-04-26T08:46:01;3.17;;;1.08;;
68792;SDS011;55778;54.346;10.210;2023-04-26T08:48:30;3.92;;;1.15;;
68792;SDS011;55778;54.346;10.210;2023-04-26T08:53:25;4.20;;;1.10;;
68792;SDS011;55778;54.346;10.210;2023-04-26T08:55:52;1.92;;;0.70;;
68792;SDS011;55778;54.346;10.210;2023-04-26T08:58:18;2.67;;;0.93;;
68792;SDS011;55778;54.346;10.210;2023-04-26T09:00:45;5.03;;;1.17;;
68792;SDS011;55778;54.346;10.210;2023-04-26T09:03:10;4.10;;;1.00;;
68792;SDS011;55778;54.346;10.210;2023-04-26T09:05:38;3.35;;;1.13;;
68792;SDS011;55778;54.346;10.210;2023-04-26T09:08:05;2.72;;;0.80;;
68792;SDS011;55778;54.346;10.210;2023-04-26T09:10:31;2.45;;;0.80;;
68792;SDS011;55778;54.346;10.210;2023-04-26T09:12:57;3.28;;;0.80;;
68792;SDS011;55778;54.346;10.210;2023-04-26T09:15:23;3.10;;;0.80;;
68792;SDS011;55778;54.346;10.210;2023-04-26T09:17:50;3.28;;;1.10;;
68792;SDS011;55778;54.346;10.210;2023-04-26T09:22:42;2.85;;;0.90;;
68792;SDS011;55778;54.346;10.210;2023-04-26T09:25:07;3.38;;;1.00;;
68792;SDS011;55778;54.346;10.210;2023-04-26T09:27:37;6.38;;;1.15;;
68792;SDS011;55778;54.346;10.210;2023-04-26T09:30:09;3.03;;;1.30;;
68792;SDS011;55778;54.346;10.210;2023-04-26T09:32:58;5.43;;;1.05;;
68792;SDS011;55778;54.346;10.210;2023-04-26T09:40:26;2.75;;;1.00;;
68792;SDS011;55778;54.346;10.210;2023-04-26T09:43:01;2.90;;;1.10;;
68792;SDS011;55778;54.346;10.210;2023-04-26T09:45:29;5.38;;;1.17;;
68792;SDS011;55778;54.346;10.210;2023-04-26T09:48:17;4.53;;;1.30;;
68792;SDS011;55778;54.346;10.210;2023-04-26T09:50:46;2.25;;;1.00;;
68792;SDS011;55778;54.346;10.210;2023-04-26T09:56:05;6.68;;;1.20;;
68792;SDS011;55778;54.346;10.210;2023-04-26T09:58:33;4.45;;;1.00;;
68792;SDS011;55778;54.346;10.210;2023-04-26T10:01:00;4.50;;;1.42;;
68792;SDS011;55778;54.346;10.210;2023-04-26T10:03:28;3.88;;;1.20;;
68792;SDS011;55778;54.346;10.210;2023-04-26T10:05:53;2.90;;;1.08;;
68792;SDS011;55778;54.346;10.210;2023-04-26T10:08:19;5.53;;;1.20;;
68792;SDS011;55778;54.346;10.210;2023-04-26T10:10:44;3.40;;;0.80;;
68792;SDS011;55778;54.346;10.210;2023-04-26T10:13:11;3.05;;;0.85;;
68792;SDS011;55778;54.346;10.210;2023-04-26T10:15:39;3.97;;;1.00;;
68792;SDS011;55778;54.346;10.210;2023-04-26T10:18:05;1.55;;;0.80;;
68792;SDS011;55778;54.346;10.210;2023-04-26T10:20:31;1.67;;;0.98;;
68792;SDS011;55778;54.346;10.210;2023-04-26T10:22:57;3.10;;;1.40;;
68792;SDS011;55778;54.346;10.210;2023-04-26T10:25:35;2.05;;;0.80;;
68792;SDS011;55778;54.346;10.210;2023-04-26T10:28:01;3.75;;;1.13;;
68792;SDS011;55778;54.346;10.210;2023-04-26T10:30:27;3.88;;;1.05;;
68792;SDS011;55778;54.346;10.210;2023-04-26T10:35:28;6.68;;;1.33;;
68792;SDS011;55778;54.346;10.210;2023-04-26T10:45:41;3.15;;;0.90;;
68792;SDS011;55778;54.346;10.210;2023-04-26T10:58:48;2.50;;;0.73;;
68792;SDS011;55778;54.346;10.210;2023-04-26T11:01:30;1.85;;;0.85;;
68792;SDS011;55778;54.346;10.210;2023-04-26T11:06:21;1.75;;;0.90;;
68792;SDS011;55778;54.346;10.210;2023-04-26T11:08:47;2.03;;;0.77;;
68792;SDS011;55778;54.346;10.210;2023-04-26T11:11:14;3.72;;;1.27;;
68792;SDS011;55778;54.346;10.210;2023-04-26T11:13:41;4.18;;;1.00;;
68792;SDS011;55778;54.346;10.210;2023-04-26T11:16:11;1.70;;;0.60;;
68792;SDS011;55778;54.346;10.210;2023-04-26T11:18:41;2.33;;;0.82;;
68792;SDS011;55778;54.346;10.210;2023-04-26T11:21:08;3.80;;;0.73;;
68792;SDS011;55778;54.346;10.210;2023-04-26T11:23:33;4.05;;;0.75;;
68792;SDS011;55778;54.346;10.210;2023-04-26T11:26:09;2.42;;;0.80;;
68792;SDS011;55778;54.346;10.210;2023-04-26T11:28:35;3.35;;;0.80;;
68792;SDS011;55778;54.346;10.210;2023-04-26T11:31:02;4.10;;;1.13;;
68792;SDS011;55778;54.346;10.210;2023-04-26T11:33:28;1.63;;;0.60;;
68792;SDS011;55778;54.346;10.210;2023-04-26T11:35:56;2.72;;;0.70;;
68792;SDS011;55778;54.346;10.210;2023-04-26T11:38:22;1.67;;;0.75;;
68792;SDS011;55778;54.346;10.210;2023-04-26T11:40:55;4.55;;;0.90;;
68792;SDS011;55778;54.346;10.210;2023-04-26T11:43:33;1.13;;;0.68;;
68792;SDS011;55778;54.346;10.210;2023-04-26T11:46:00;3.10;;;0.80;;
68792;SDS011;55778;54.346;10.210;2023-04-26T11:48:26;2.85;;;0.95;;
68792;SDS011;55778;54.346;10.210;2023-04-26T11:50:55;1.23;;;0.60;;
68792;SDS011;55778;54.346;10.210;2023-04-26T11:53:22;1.75;;;0.63;;
68792;SDS011;55778;54.346;10.210;2023-04-26T11:55:48;2.05;;;0.70;;
68792;SDS011;55778;54.346;10.210;2023-04-26T11:58:15;2.03;;;0.90;;
68792;SDS011;55778;54.346;10.210;2023-04-26T12:00:59;2.17;;;0.85;;
68792;SDS011;55778;54.346;10.210;2023-04-26T12:03:29;2.33;;;0.70;;
68792;SDS011;55778;54.346;10.210;2023-04-26T12:05:56;3.47;;;0.90;;
68792;SDS011;55778;54.346;10.210;2023-04-26T12:08:25;1.95;;;0.57;;
68792;SDS011;55778;54.346;10.210;2023-04-26T12:13:17;1.45;;;0.70;;
68792;SDS011;55778;54.346;10.210;2023-04-26T12:15:44;2.38;;;0.75;;
68792;SDS011;55778;54.346;10.210;2023-04-26T12:18:09;1.48;;;0.80;;
68792;SDS011;55778;54.346;10.210;2023-04-26T12:20:36;1.98;;;0.82;;
68792;SDS011;55778;54.346;10.210;2023-04-26T12:23:07;1.98;;;0.85;;
68792;SDS011;55778;54.346;10.210;2023-04-26T12:25:38;2.95;;;0.80;;
68792;SDS011;55778;54.346;10.210;2023-04-26T12:28:07;1.77;;;0.80;;
68792;SDS011;55778;54.346;10.210;2023-04-26T12:30:36;1.23;;;0.70;;
68792;SDS011;55778;54.346;10.210;2023-04-26T12:33:02;1.77;;;0.75;;
68792;SDS011;55778;54.346;10.210;2023-04-26T12:35:29;2.83;;;0.90;;
68792;SDS011;55778;54.346;10.210;2023-04-26T12:37:55;2.38;;;0.80;;
68792;SDS011;55778;54.346;10.210;2023-04-26T12:40:24;3.13;;;0.90;;
68792;SDS011;55778;54.346;10.210;2023-04-26T12:42:50;2.30;;;0.90;;
68792;SDS011;55778;54.346;10.210;2023-04-26T12:45:16;2.25;;;0.80;;
68792;SDS011;55778;54.346;10.210;2023-04-26T12:47:45;4.53;;;0.85;;
68792;SDS011;55778;54.346;10.210;2023-04-26T12:50:11;1.60;;;0.60;;
68792;SDS011;55778;54.346;10.210;2023-04-26T12:52:40;2.03;;;0.80;;
68792;SDS011;55778;54.346;10.210;2023-04-26T12:57:34;1.27;;;0.77;;
68792;SDS011;55778;54.346;10.210;2023-04-26T13:00:00;1.88;;;0.75;;
68792;SDS011;55778;54.346;10.210;2023-04-26T13:02:26;2.22;;;0.70;;
68792;SDS011;55778;54.346;10.210;2023-04-26T13:04:51;0.80;;;0.70;;
68792;SDS011;55778;54.346;10.210;2023-04-26T13:07:17;3.13;;;1.10;;
68792;SDS011;55778;54.346;10.210;2023-04-26T13:09:42;2.78;;;1.30;;
68792;SDS011;55778;54.346;10.210;2023-04-26T13:12:07;4.03;;;1.00;;
68792;SDS011;55778;54.346;10.210;2023-04-26T13:14:33;4.88;;;1.10;;
68792;SDS011;55778;54.346;10.210;2023-04-26T13:16:58;3.97;;;0.90;;
68792;SDS011;55778;54.346;10.210;2023-04-26T13:19:24;1.90;;;0.80;;
68792;SDS011;55778;54.346;10.210;2023-04-26T13:21:49;1.60;;;0.70;;
68792;SDS011;55778;54.346;10.210;2023-04-26T13:24:16;3.58;;;0.80;;
68792;SDS011;55778;54.346;10.210;2023-04-26T13:26:42;4.15;;;0.90;;
68792;SDS011;55778;54.346;10.210;2023-04-26T13:29:07;4.65;;;1.02;;
68792;SDS011;55778;54.346;10.210;2023-04-26T13:31:32;6.55;;;1.20;;
68792;SDS011;55778;54.346;10.210;2023-04-26T13:33:58;2.90;;;1.00;;
68792;SDS011;55778;54.346;10.210;2023-04-26T13:36:23;1.98;;;0.80;;
68792;SDS011;55778;54.346;10.210;2023-04-26T13:38:48;4.70;;;1.00;;
68792;SDS011;55778;54.346;10.210;2023-04-26T13:41:14;2.63;;;0.90;;
68792;SDS011;55778;54.346;10.210;2023-04-26T13:43:40;3.65;;;0.80;;
68792;SDS011;55778;54.346;10.210;2023-04-26T13:46:05;3.25;;;0.80;;
68792;SDS011;55778;54.346;10.210;2023-04-26T13:48:30;3.92;;;1.05;;
68792;SDS011;55778;54.346;10.210;2023-04-26T13:50:56;2.83;;;1.30;;
68792;SDS011;55778;54.346;10.210;2023-04-26T13:53:22;3.33;;;0.80;;
68792;SDS011;55778;54.346;10.210;2023-04-26T13:55:48;1.33;;;0.80;;
68792;SDS011;55778;54.346;10.210;2023-04-26T13:58:13;3.70;;;1.00;;
68792;SDS011;55778;54.346;10.210;2023-04-26T14:00:39;1.38;;;0.82;;
68792;SDS011;55778;54.346;10.210;2023-04-26T14:03:04;2.25;;;1.45;;
68792;SDS011;55778;54.346;10.210;2023-04-26T14:05:30;3.40;;;0.70;;
68792;SDS011;55778;54.346;10.210;2023-04-26T14:07:55;3.25;;;1.20;;
68792;SDS011;55778;54.346;10.210;2023-04-26T14:10:21;2.08;;;0.90;;
68792;SDS011;55778;54.346;10.210;2023-04-26T14:12:46;4.28;;;0.93;;
68792;SDS011;55778;54.346;10.210;2023-04-26T14:15:12;4.03;;;0.82;;
68792;SDS011;55778;54.346;10.210;2023-04-26T14:17:37;3.55;;;0.98;;
68792;SDS011;55778;54.346;10.210;2023-04-26T14:20:03;6.43;;;1.20;;
68792;SDS011;55778;54.346;10.210;2023-04-26T14:22:29;1.58;;;0.80;;
68792;SDS011;55778;54.346;10.210;2023-04-26T14:24:55;4.45;;;1.50;;
68792;SDS011;55778;54.346;10.210;2023-04-26T14:27:20;2.63;;;1.10;;
68792;SDS011;55778;54.346;10.210;2023-04-26T14:29:46;3.80;;;0.93;;
68792;SDS011;55778;54.346;10.210;2023-04-26T14:32:11;3.88;;;1.20;;
68792;SDS011;55778;54.346;10.210;2023-04-26T14:34:37;3.95;;;1.20;;
68792;SDS011;55778;54.346;10.210;2023-04-26T14:37:06;5.28;;;1.20;;
68792;SDS011;55778;54.346;10.210;2023-04-26T14:39:31;2.25;;;0.90;;
68792;SDS011;55778;54.346;10.210;2023-04-26T14:41:57;3.70;;;1.08;;
68792;SDS011;55778;54.346;10.210;2023-04-26T14:44:23;3.97;;;1.30;;
68792;SDS011;55778;54.346;10.210;2023-04-26T14:46:49;4.78;;;1.58;;
68792;SDS011;55778;54.346;10.210;2023-04-26T14:49:15;4.93;;;1.80;;
68792;SDS011;55778;54.346;10.210;2023-04-26T14:51:40;7.85;;;1.15;;
68792;SDS011;55778;54.346;10.210;2023-04-26T14:54:05;4.57;;;1.15;;
68792;SDS011;55778;54.346;10.210;2023-04-26T14:56:31;4.95;;;1.27;;
68792;SDS011;55778;54.346;10.210;2023-04-26T14:58:58;3.30;;;1.30;;
68792;SDS011;55778;54.346;10.210;2023-04-26T15:01:23;2.42;;;1.00;;
68792;SDS011;55778;54.346;10.210;2023-04-26T15:03:48;5.00;;;1.30;;
68792;SDS011;55778;54.346;10.210;2023-04-26T15:06:14;3.80;;;1.30;;
68792;SDS011;55778;54.346;10.210;2023-04-26T15:08:39;3.90;;;1.20;;